createdAt,value
2024-03-30T00:00:14.740Z,100183.44
2024-03-30T00:02:41.358Z,100180.36
2024-03-30T00:05:08.348Z,100182.45
2024-03-30T00:07:39.912Z,100181.44
2024-03-30T00:10:06.689Z,100180.84
2024-03-30T00:12:33.340Z,100181.56
2024-03-30T00:14:59.908Z,100184.02
2024-03-30T00:17:26.591Z,100180.45
2024-03-30T00:19:53.133Z,100187.46
2024-03-30T00:22:19.785Z,100181.19
2024-03-30T00:24:46.341Z,100182.70
2024-03-30T00:27:12.908Z,100184.31
2024-03-30T00:29:39.462Z,100181.37
2024-03-30T00:32:06.648Z,100183.05
2024-03-30T00:34:33.402Z,100189.58
2024-03-30T00:36:59.958Z,100189.48
2024-03-30T00:39:26.595Z,100196.34
2024-03-30T00:41:53.166Z,100197.55
2024-03-30T00:44:20.000Z,100198.64
2024-03-30T00:46:46.519Z,100201.01
2024-03-30T00:49:13.185Z,100202.27
2024-03-30T00:51:39.738Z,100200.05
2024-03-30T00:54:06.349Z,100199.58
2024-03-30T00:56:32.908Z,100188.91
2024-03-30T00:59:01.535Z,100190.63
2024-03-30T01:01:28.277Z,100190.45
2024-03-30T01:03:54.843Z,100190.21
2024-03-30T01:06:22.032Z,100198.61
2024-03-30T01:08:48.695Z,100198.04
2024-03-30T01:11:15.612Z,100208.74
2024-03-30T01:13:42.542Z,100212.15
2024-03-30T01:16:12.983Z,100211.27
2024-03-30T01:18:40.256Z,100210.02
2024-03-30T01:21:16.557Z,100207.00
2024-03-30T01:23:48.690Z,100206.61
2024-03-30T01:26:19.249Z,100212.11
2024-03-30T01:28:47.264Z,100207.86
2024-03-30T01:31:14.706Z,100199.04
2024-03-30T01:33:41.524Z,100189.77
2024-03-30T01:36:08.584Z,100187.33
2024-03-30T01:38:35.603Z,100176.47
2024-03-30T01:41:02.150Z,100167.73
2024-03-30T01:43:28.831Z,100162.71
2024-03-30T01:45:57.152Z,100157.71
2024-03-30T01:48:24.535Z,100153.58
2024-03-30T01:50:53.015Z,100145.49
2024-03-30T01:53:24.020Z,100142.93
2024-03-30T01:55:53.227Z,100138.88
2024-03-30T01:58:25.810Z,100132.17
2024-03-30T02:00:54.383Z,100119.23
2024-03-30T02:03:22.631Z,100109.80
2024-03-30T02:05:50.094Z,100110.95
2024-03-30T02:08:18.431Z,100114.25
2024-03-30T02:10:47.544Z,100103.63
2024-03-30T02:13:14.311Z,100096.40
2024-03-30T02:15:40.939Z,100082.31
2024-03-30T02:18:07.937Z,100074.38
2024-03-30T02:20:34.605Z,100072.86
2024-03-30T02:23:01.176Z,100068.96
2024-03-30T02:25:27.772Z,100068.62
2024-03-30T02:27:54.404Z,100072.27
2024-03-30T02:30:42.642Z,100065.65
2024-03-30T02:33:09.496Z,100057.77
2024-03-30T02:35:36.102Z,100066.85
2024-03-30T02:38:02.864Z,100067.50
2024-03-30T02:40:29.597Z,100064.64
2024-03-30T02:42:56.167Z,100079.42
2024-03-30T02:45:22.876Z,100068.27
2024-03-30T02:47:49.473Z,100061.92
2024-03-30T02:50:16.014Z,100062.99
2024-03-30T02:52:42.578Z,100061.29
2024-03-30T02:55:09.162Z,100069.06
2024-03-30T02:57:35.816Z,100069.84
2024-03-30T03:00:02.383Z,100059.75
2024-03-30T03:02:28.927Z,100053.72
2024-03-30T03:04:55.515Z,100049.03
2024-03-30T03:07:22.064Z,100053.81
2024-03-30T03:09:48.634Z,100058.16
2024-03-30T03:12:15.186Z,100053.92
2024-03-30T03:14:41.773Z,100050.80
2024-03-30T03:17:08.366Z,100047.02
2024-03-30T03:19:34.886Z,100047.75
2024-03-30T03:22:01.484Z,100048.16
2024-03-30T03:24:28.087Z,100045.73
2024-03-30T03:26:54.782Z,100044.81
2024-03-30T03:29:21.307Z,100039.79
2024-03-30T03:31:47.945Z,100047.33
2024-03-30T03:34:14.570Z,100044.90
2024-03-30T03:36:42.568Z,100035.88
2024-03-30T03:39:09.126Z,100035.59
2024-03-30T03:41:36.024Z,100048.27
2024-03-30T03:44:02.621Z,100054.06
2024-03-30T03:46:29.216Z,100048.00
2024-03-30T03:48:55.734Z,100047.33
2024-03-30T03:51:22.334Z,100050.73
2024-03-30T03:53:48.891Z,100044.56
2024-03-30T03:56:15.590Z,100041.07
2024-03-30T03:58:42.201Z,100045.14
2024-03-30T04:01:08.835Z,100051.23
2024-03-30T04:03:37.445Z,100044.06
2024-03-30T04:06:10.759Z,100047.46
2024-03-30T04:08:37.408Z,100047.15
2024-03-30T04:11:06.289Z,100045.05
2024-03-30T04:13:33.690Z,100041.58
2024-03-30T04:16:07.235Z,100039.86
2024-03-30T04:18:34.361Z,100032.46
2024-03-30T04:21:03.448Z,100030.63
2024-03-30T04:23:32.388Z,100027.65
2024-03-30T04:26:12.856Z,100022.45
2024-03-30T04:28:39.367Z,100019.31
2024-03-30T04:31:06.949Z,100019.27
2024-03-30T04:33:34.798Z,100011.06
2024-03-30T04:36:03.648Z,100006.90
2024-03-30T04:38:31.459Z,100006.36
2024-03-30T04:40:59.524Z,100002.61
2024-03-30T04:43:27.021Z,100006.85
2024-03-30T04:45:53.762Z,100003.26
2024-03-30T04:48:20.825Z,99997.27
2024-03-30T04:50:47.642Z,99995.73
2024-03-30T04:53:23.444Z,99990.70
2024-03-30T04:55:51.355Z,99995.42
2024-03-30T04:58:22.611Z,99989.06
2024-03-30T05:00:54.491Z,99992.70
2024-03-30T05:03:21.286Z,99997.73
2024-03-30T05:05:48.783Z,100001.23
2024-03-30T05:08:15.754Z,100002.80
2024-03-30T05:10:43.915Z,100007.74
2024-03-30T05:13:11.146Z,100005.36
2024-03-30T05:15:40.215Z,100008.96
2024-03-30T05:18:08.959Z,100006.68
2024-03-30T05:20:52.131Z,100000.05
2024-03-30T05:23:30.750Z,100002.10
2024-03-30T05:26:01.898Z,100010.92
2024-03-30T05:28:30.209Z,100013.40
2024-03-30T05:30:58.690Z,100012.62
2024-03-30T05:33:26.972Z,100012.32
2024-03-30T05:35:55.131Z,100017.00
2024-03-30T05:38:22.570Z,100022.36
2024-03-30T05:40:50.426Z,100030.61
2024-03-30T05:43:17.759Z,100027.89
2024-03-30T05:45:49.060Z,100027.14
2024-03-30T05:48:15.712Z,100022.75
2024-03-30T05:50:42.327Z,100029.60
2024-03-30T05:53:08.947Z,100031.87
2024-03-30T05:55:35.501Z,100029.19
2024-03-30T05:58:05.144Z,100011.33
2024-03-30T06:00:32.902Z,100018.76
2024-03-30T06:02:59.601Z,100018.59
2024-03-30T06:05:27.334Z,100022.51
2024-03-30T06:07:53.981Z,100015.80
2024-03-30T06:10:20.613Z,100009.76
2024-03-30T06:12:47.184Z,100011.62
2024-03-30T06:15:13.745Z,100012.96
2024-03-30T06:17:40.796Z,100005.56
2024-03-30T06:20:10.032Z,100019.08
2024-03-30T06:22:37.681Z,100020.10
2024-03-30T06:25:07.345Z,100026.75
2024-03-30T06:27:35.092Z,100021.95
2024-03-30T06:30:02.649Z,100019.84
2024-03-30T06:32:29.376Z,100022.11
2024-03-30T06:34:55.983Z,100027.37
2024-03-30T06:37:22.611Z,100030.48
2024-03-30T06:40:08.011Z,100026.52
2024-03-30T06:42:53.392Z,100019.09
2024-03-30T06:45:19.992Z,100015.04
2024-03-30T06:47:46.571Z,100011.15
2024-03-30T06:50:13.093Z,100011.61
2024-03-30T06:52:39.727Z,100014.50
2024-03-30T06:55:06.362Z,100021.16
2024-03-30T06:57:32.900Z,100022.98
2024-03-30T06:59:59.840Z,100014.36
2024-03-30T07:02:26.601Z,100008.61
2024-03-30T07:04:53.233Z,100011.50
2024-03-30T07:07:19.890Z,100011.30
2024-03-30T07:09:46.500Z,100019.76
2024-03-30T07:12:13.382Z,100026.23
2024-03-30T07:14:39.919Z,100026.27
2024-03-30T07:17:14.317Z,100020.40
2024-03-30T07:19:42.210Z,100025.33
2024-03-30T07:22:08.822Z,100016.15
2024-03-30T07:24:38.386Z,100019.11
2024-03-30T07:27:05.463Z,100013.44
2024-03-30T07:29:33.188Z,100011.64
2024-03-30T07:32:01.873Z,100018.59
2024-03-30T07:34:28.508Z,100017.14
2024-03-30T07:36:55.120Z,100010.48
2024-03-30T07:39:21.887Z,100020.85
2024-03-30T07:41:48.559Z,100017.77
2024-03-30T07:44:17.243Z,100023.98
2024-03-30T07:46:43.784Z,100018.23
2024-03-30T07:49:10.381Z,100012.98
2024-03-30T07:51:36.974Z,100015.65
2024-03-30T07:54:03.547Z,100018.83
2024-03-30T07:56:30.157Z,100017.33
2024-03-30T07:58:58.998Z,100026.85
2024-03-30T08:01:28.326Z,100030.61
2024-03-30T08:03:54.940Z,100037.66
2024-03-30T08:06:21.541Z,100043.77
2024-03-30T08:08:48.114Z,100046.95
2024-03-30T08:11:14.757Z,100051.42
2024-03-30T08:13:41.736Z,100056.70
2024-03-30T08:16:08.287Z,100054.35
2024-03-30T08:18:36.019Z,100062.95
2024-03-30T08:21:03.950Z,100060.14
2024-03-30T08:23:32.270Z,100061.77
2024-03-30T08:25:58.924Z,100055.01
2024-03-30T08:28:25.489Z,100054.39
2024-03-30T08:30:52.110Z,100056.11
2024-03-30T08:33:18.722Z,100056.73
2024-03-30T08:36:03.568Z,100051.77
2024-03-30T08:38:30.148Z,100052.55
2024-03-30T08:40:56.687Z,100060.61
2024-03-30T08:43:26.588Z,100056.52
2024-03-30T08:45:54.710Z,100050.90
2024-03-30T08:48:21.691Z,100049.17
2024-03-30T08:50:48.542Z,100040.04
2024-03-30T08:53:15.206Z,100037.73
2024-03-30T08:55:41.907Z,100041.91
2024-03-30T08:58:08.847Z,100039.02
2024-03-30T09:00:36.216Z,100036.82
2024-03-30T09:03:04.238Z,100036.48
2024-03-30T09:05:31.184Z,100035.14
2024-03-30T09:07:58.339Z,100026.41
2024-03-30T09:10:26.786Z,100025.02
2024-03-30T09:12:53.399Z,100016.38
2024-03-30T09:15:22.772Z,100011.34
2024-03-30T09:17:49.370Z,100013.02
2024-03-30T09:20:16.234Z,100008.00
2024-03-30T09:22:43.445Z,100018.36
2024-03-30T09:25:16.186Z,100012.48
2024-03-30T09:27:43.062Z,100003.48
2024-03-30T09:30:11.517Z,100005.70
2024-03-30T09:32:42.334Z,99995.16
2024-03-30T09:35:09.850Z,100002.84
2024-03-30T09:37:37.920Z,99997.30
2024-03-30T09:40:05.663Z,99989.84
2024-03-30T09:42:36.598Z,99984.58
2024-03-30T09:45:04.724Z,99978.42
2024-03-30T09:47:32.740Z,99977.88
2024-03-30T09:50:03.232Z,99974.73
2024-03-30T09:52:31.119Z,99969.23
2024-03-30T09:55:01.121Z,99963.63
2024-03-30T09:57:30.647Z,99962.16
2024-03-30T09:59:58.111Z,99956.70
2024-03-30T10:02:24.883Z,99955.60
2024-03-30T10:04:51.605Z,99943.84
2024-03-30T10:07:44.612Z,99938.15
2024-03-30T10:10:17.187Z,99937.14
2024-03-30T10:13:05.466Z,99932.56
2024-03-30T10:15:43.989Z,99934.86
2024-03-30T10:18:10.594Z,99939.43
2024-03-30T10:20:37.202Z,99930.60
2024-03-30T10:23:04.285Z,99936.55
2024-03-30T10:25:32.371Z,99932.31
2024-03-30T10:27:59.042Z,99929.96
2024-03-30T10:30:26.706Z,99938.49
2024-03-30T10:32:56.060Z,99934.97
2024-03-30T10:35:23.664Z,99932.45
2024-03-30T10:37:50.871Z,99931.09
2024-03-30T10:40:17.531Z,99929.06
2024-03-30T10:42:44.191Z,99931.09
2024-03-30T10:45:11.523Z,99934.88
2024-03-30T10:47:39.822Z,99941.89
2024-03-30T10:50:07.891Z,99939.22
2024-03-30T10:52:38.490Z,99933.20
2024-03-30T10:55:06.575Z,99944.16
2024-03-30T10:57:33.218Z,99946.27
2024-03-30T11:00:04.401Z,99949.21
2024-03-30T11:02:32.744Z,99953.88
2024-03-30T11:05:01.714Z,99958.20
2024-03-30T11:07:28.455Z,99947.75
2024-03-30T11:09:56.803Z,99934.66
2024-03-30T11:12:24.240Z,99919.95
2024-03-30T11:14:51.313Z,99905.88
2024-03-30T11:17:31.668Z,99899.48
2024-03-30T11:20:20.064Z,99892.32
2024-03-30T11:22:54.067Z,99904.52
2024-03-30T11:25:23.101Z,99911.84
2024-03-30T11:28:18.712Z,99911.23
2024-03-30T11:31:05.412Z,99900.82
2024-03-30T11:33:37.688Z,99887.54
2024-03-30T11:36:16.225Z,99893.13
2024-03-30T11:38:47.809Z,99893.06
2024-03-30T11:41:16.874Z,99888.64
2024-03-30T11:43:48.079Z,99884.56
2024-03-30T11:46:15.775Z,99889.30
2024-03-30T11:48:43.024Z,99885.74
2024-03-30T11:51:28.937Z,99887.11
2024-03-30T11:53:55.457Z,99885.02
2024-03-30T11:56:22.047Z,99880.67
2024-03-30T11:58:57.382Z,99885.23
2024-03-30T12:01:23.914Z,99886.69
2024-03-30T12:03:50.980Z,99881.92
2024-03-30T12:06:22.491Z,99876.66
2024-03-30T12:08:50.156Z,99868.72
2024-03-30T12:11:17.071Z,99869.68
2024-03-30T12:13:44.030Z,99871.01
2024-03-30T12:16:10.951Z,99868.32
2024-03-30T12:18:40.258Z,99867.05
2024-03-30T12:21:08.643Z,99858.33
2024-03-30T12:23:35.793Z,99858.63
2024-03-30T12:26:02.899Z,99858.59
2024-03-30T12:28:29.462Z,99848.44
2024-03-30T12:30:56.238Z,99839.33
2024-03-30T12:33:26.749Z,99835.24
2024-03-30T12:35:53.620Z,99837.55
2024-03-30T12:38:20.282Z,99824.67
2024-03-30T12:40:47.597Z,99823.25
2024-03-30T12:43:15.047Z,99825.00
2024-03-30T12:45:45.423Z,99837.36
2024-03-30T12:48:12.861Z,99839.40
2024-03-30T12:50:39.491Z,99846.35
2024-03-30T12:53:07.759Z,99835.93
2024-03-30T12:55:35.297Z,99834.70
2024-03-30T12:58:01.972Z,99828.01
2024-03-30T13:00:29.080Z,99826.86
2024-03-30T13:02:58.753Z,99821.30
2024-03-30T13:05:35.679Z,99811.19
2024-03-30T13:08:07.230Z,99806.04
2024-03-30T13:10:35.823Z,99802.27
2024-03-30T13:13:04.456Z,99803.16
2024-03-30T13:15:32.052Z,99805.00
2024-03-30T13:18:06.892Z,99811.25
2024-03-30T13:20:33.450Z,99810.69
2024-03-30T13:23:05.649Z,99802.88
2024-03-30T13:25:32.381Z,99800.02
2024-03-30T13:27:59.021Z,99795.96
2024-03-30T13:30:27.012Z,99802.96
2024-03-30T13:32:54.081Z,99794.84
2024-03-30T13:35:20.623Z,99779.66
2024-03-30T13:37:47.149Z,99788.09
2024-03-30T13:40:14.025Z,99796.09
2024-03-30T13:42:40.630Z,99788.44
2024-03-30T13:45:07.615Z,99777.94
2024-03-30T13:47:34.205Z,99762.65
2024-03-30T13:50:01.195Z,99755.61
2024-03-30T13:52:27.770Z,99750.46
2024-03-30T13:54:54.390Z,99758.66
2024-03-30T13:57:20.952Z,99765.15
2024-03-30T13:59:48.259Z,99763.58
2024-03-30T14:02:14.957Z,99765.92
2024-03-30T14:04:41.483Z,99774.83
2024-03-30T14:07:08.132Z,99772.50
2024-03-30T14:09:34.757Z,99782.38
2024-03-30T14:12:01.548Z,99786.36
2024-03-30T14:14:28.244Z,99796.33
2024-03-30T14:16:54.815Z,99788.11
2024-03-30T14:19:21.392Z,99793.14
2024-03-30T14:21:48.019Z,99797.75
2024-03-30T14:24:14.571Z,99802.51
2024-03-30T14:26:41.234Z,99806.65
2024-03-30T14:29:07.842Z,99808.17
2024-03-30T14:31:34.422Z,99805.13
2024-03-30T14:34:00.971Z,99807.79
2024-03-30T14:36:32.854Z,99801.80
2024-03-30T14:39:00.702Z,99808.21
2024-03-30T14:41:27.645Z,99808.23
2024-03-30T14:43:55.344Z,99797.73
2024-03-30T14:46:23.543Z,99805.44
2024-03-30T14:48:50.934Z,99809.05
2024-03-30T14:51:18.052Z,99810.84
2024-03-30T14:53:47.507Z,99811.63
2024-03-30T14:56:14.870Z,99803.81
2024-03-30T14:58:41.908Z,99796.82
2024-03-30T15:01:13.218Z,99797.64
2024-03-30T15:03:46.615Z,99798.55
2024-03-30T15:06:20.691Z,99803.45
2024-03-30T15:08:51.934Z,99800.52
2024-03-30T15:11:20.599Z,99810.48
2024-03-30T15:13:47.683Z,99810.27
2024-03-30T15:16:14.239Z,99818.98
2024-03-30T15:18:41.997Z,99821.08
2024-03-30T15:21:09.927Z,99825.38
2024-03-30T15:23:39.485Z,99830.91
2024-03-30T15:26:12.956Z,99817.83
2024-03-30T15:28:40.580Z,99816.90
2024-03-30T15:31:26.464Z,99801.48
2024-03-30T15:33:58.086Z,99802.79
2024-03-30T15:36:25.559Z,99792.77
2024-03-30T15:38:52.481Z,99788.77
2024-03-30T15:41:19.631Z,99763.71
2024-03-30T15:43:46.334Z,99762.55
2024-03-30T15:46:16.860Z,99768.34
2024-03-30T15:48:45.393Z,99765.46
2024-03-30T15:51:12.003Z,99744.67
2024-03-30T15:53:38.779Z,99748.96
2024-03-30T15:56:05.717Z,99756.14
2024-03-30T15:58:35.938Z,99751.67
2024-03-30T16:01:07.958Z,99745.16
2024-03-30T16:03:41.008Z,99740.02
2024-03-30T16:06:08.694Z,99727.56
2024-03-30T16:08:35.310Z,99713.60
2024-03-30T16:11:02.171Z,99721.13
2024-03-30T16:13:30.659Z,99724.36
2024-03-30T16:15:58.809Z,99737.22
2024-03-30T16:18:25.818Z,99738.61
2024-03-30T16:20:58.973Z,99760.59
2024-03-30T16:23:26.996Z,99761.82
2024-03-30T16:25:58.253Z,99769.60
2024-03-30T16:28:24.984Z,99768.41
2024-03-30T16:30:56.085Z,99758.28
2024-03-30T16:33:22.761Z,99767.45
2024-03-30T16:35:49.405Z,99779.46
2024-03-30T16:38:16.226Z,99774.02
2024-03-30T16:40:42.871Z,99752.86
2024-03-30T16:43:09.421Z,99745.58
2024-03-30T16:45:36.655Z,99732.70
2024-03-30T16:48:05.376Z,99722.67
2024-03-30T16:50:32.236Z,99721.31
2024-03-30T16:52:58.923Z,99702.45
2024-03-30T16:55:25.583Z,99687.59
2024-03-30T16:57:53.897Z,99671.55
2024-03-30T17:00:22.241Z,99671.48
2024-03-30T17:02:48.767Z,99668.94
2024-03-30T17:05:15.592Z,99669.77
2024-03-30T17:07:43.144Z,99667.05
2024-03-30T17:10:09.782Z,99657.68
2024-03-30T17:12:40.213Z,99662.13
2024-03-30T17:15:07.587Z,99660.64
2024-03-30T17:17:34.166Z,99682.69
2024-03-30T17:20:00.803Z,99680.76
2024-03-30T17:22:27.678Z,99681.04
2024-03-30T17:24:55.024Z,99691.45
2024-03-30T17:27:21.643Z,99686.86
2024-03-30T17:29:48.283Z,99687.84
2024-03-30T17:32:14.852Z,99704.76
2024-03-30T17:34:53.330Z,99720.29
2024-03-30T17:37:23.562Z,99726.64
2024-03-30T17:39:50.450Z,99727.42
2024-03-30T17:42:16.999Z,99725.92
2024-03-30T17:44:48.376Z,99710.41
2024-03-30T17:47:15.037Z,99708.69
2024-03-30T17:49:43.543Z,99707.34
2024-03-30T17:52:10.364Z,99711.55
2024-03-30T17:54:39.437Z,99715.08
2024-03-30T17:57:06.367Z,99719.78
2024-03-30T17:59:32.955Z,99730.10
2024-03-30T18:01:59.613Z,99727.50
2024-03-30T18:04:29.772Z,99719.63
2024-03-30T18:06:56.367Z,99732.55
2024-03-30T18:09:22.999Z,99732.41
2024-03-30T18:11:49.543Z,99741.17
2024-03-30T18:14:17.243Z,99748.90
2024-03-30T18:16:44.039Z,99769.91
2024-03-30T18:19:10.719Z,99770.19
2024-03-30T18:21:37.271Z,99771.14
2024-03-30T18:24:04.111Z,99748.67
2024-03-30T18:26:33.985Z,99752.14
2024-03-30T18:29:00.653Z,99739.88
2024-03-30T18:31:27.320Z,99747.79
2024-03-30T18:33:53.923Z,99758.15
2024-03-30T18:36:20.546Z,99755.80
2024-03-30T18:38:49.366Z,99769.86
2024-03-30T18:41:16.577Z,99759.09
2024-03-30T18:43:43.544Z,99752.36
2024-03-30T18:46:11.434Z,99752.35
2024-03-30T18:48:38.007Z,99752.19
2024-03-30T18:51:12.115Z,99742.77
2024-03-30T18:53:39.262Z,99752.77
2024-03-30T18:56:10.108Z,99751.77
2024-03-30T18:58:36.945Z,99755.65
2024-03-30T19:01:09.045Z,99753.39
2024-03-30T19:03:38.843Z,99746.26
2024-03-30T19:06:05.851Z,99750.39
2024-03-30T19:08:32.499Z,99754.02
2024-03-30T19:11:00.611Z,99760.58
2024-03-30T19:13:27.226Z,99755.83
2024-03-30T19:15:54.839Z,99758.52
2024-03-30T19:18:21.459Z,99766.12
2024-03-30T19:20:48.260Z,99764.27
2024-03-30T19:23:14.878Z,99762.23
2024-03-30T19:25:41.947Z,99767.92
2024-03-30T19:28:08.589Z,99770.20
2024-03-30T19:30:35.247Z,99775.66
2024-03-30T19:33:02.270Z,99769.54
2024-03-30T19:35:28.852Z,99776.59
2024-03-30T19:37:55.363Z,99785.80
2024-03-30T19:40:25.068Z,99781.07
2024-03-30T19:42:51.761Z,99778.83
2024-03-30T19:45:18.662Z,99792.50
2024-03-30T19:47:45.250Z,99788.70
2024-03-30T19:50:13.091Z,99792.52
2024-03-30T19:52:39.718Z,99787.36
2024-03-30T19:55:06.578Z,99785.47
2024-03-30T19:57:35.251Z,99779.09
2024-03-30T20:00:04.479Z,99773.40
2024-03-30T20:02:31.919Z,99775.93
2024-03-30T20:04:59.410Z,99760.09
2024-03-30T20:07:25.959Z,99752.95
2024-03-30T20:09:52.835Z,99752.25
2024-03-30T20:12:19.436Z,99741.65
2024-03-30T20:14:46.427Z,99745.78
2024-03-30T20:17:12.992Z,99742.95
2024-03-30T20:19:39.540Z,99735.32
2024-03-30T20:22:06.071Z,99739.85
2024-03-30T20:24:32.686Z,99734.36
2024-03-30T20:26:59.384Z,99738.93
2024-03-30T20:29:26.049Z,99745.60
2024-03-30T20:31:52.626Z,99744.52
2024-03-30T20:34:19.271Z,99747.66
2024-03-30T20:36:45.791Z,99752.30
2024-03-30T20:39:12.319Z,99759.34
2024-03-30T20:41:38.999Z,99753.35
2024-03-30T20:44:05.578Z,99753.77
2024-03-30T20:46:32.203Z,99741.64
2024-03-30T20:48:58.731Z,99767.12
2024-03-30T20:51:25.462Z,99782.45
2024-03-30T20:53:52.015Z,99782.06
2024-03-30T20:56:18.602Z,99775.01
2024-03-30T20:58:45.145Z,99763.41
2024-03-30T21:01:11.774Z,99753.63
2024-03-30T21:03:38.420Z,99762.54
2024-03-30T21:06:06.721Z,99768.06
2024-03-30T21:08:33.884Z,99760.40
2024-03-30T21:11:01.106Z,99751.15
2024-03-30T21:13:27.841Z,99767.16
2024-03-30T21:16:03.409Z,99761.38
2024-03-30T21:18:31.050Z,99767.95
2024-03-30T21:21:01.929Z,99762.37
2024-03-30T21:23:29.040Z,99762.66
2024-03-30T21:26:06.362Z,99756.05
2024-03-30T21:28:33.832Z,99747.22
2024-03-30T21:31:01.371Z,99736.36
2024-03-30T21:33:28.024Z,99729.73
2024-03-30T21:35:55.654Z,99723.16
2024-03-30T21:38:23.095Z,99722.20
2024-03-30T21:40:50.345Z,99741.74
2024-03-30T21:43:17.074Z,99740.09
2024-03-30T21:46:01.195Z,99748.75
2024-03-30T21:48:27.989Z,99740.54
2024-03-30T21:50:58.556Z,99733.27
2024-03-30T21:53:25.459Z,99717.66
2024-03-30T21:55:55.434Z,99703.59
2024-03-30T21:58:22.876Z,99704.49
2024-03-30T22:00:50.178Z,99703.66
2024-03-30T22:03:16.878Z,99713.14
2024-03-30T22:05:44.480Z,99711.55
2024-03-30T22:08:11.131Z,99707.02
2024-03-30T22:10:39.060Z,99699.79
2024-03-30T22:13:06.798Z,99711.15
2024-03-30T22:15:34.340Z,99713.38
2024-03-30T22:18:03.039Z,99718.86
2024-03-30T22:20:29.934Z,99713.66
2024-03-30T22:22:56.775Z,99708.89
2024-03-30T22:25:26.124Z,99724.83
2024-03-30T22:27:53.579Z,99734.16
2024-03-30T22:30:21.444Z,99728.70
2024-03-30T22:32:48.479Z,99724.46
2024-03-30T22:35:15.269Z,99733.30
2024-03-30T22:37:41.987Z,99743.69
2024-03-30T22:40:09.791Z,99733.42
2024-03-30T22:42:36.382Z,99733.40
2024-03-30T22:45:03.122Z,99736.53
2024-03-30T22:47:29.897Z,99736.66
2024-03-30T22:49:56.493Z,99741.19
2024-03-30T22:52:23.051Z,99740.36
2024-03-30T22:54:49.611Z,99738.25
2024-03-30T22:57:16.351Z,99733.98
2024-03-30T22:59:42.974Z,99754.67
2024-03-30T23:02:09.502Z,99742.33
2024-03-30T23:04:39.771Z,99758.75
2024-03-30T23:07:07.043Z,99763.34
2024-03-30T23:09:33.735Z,99757.46
2024-03-30T23:12:00.808Z,99760.45
2024-03-30T23:14:31.426Z,99766.26
2024-03-30T23:16:58.339Z,99772.72
2024-03-30T23:19:24.955Z,99782.44
2024-03-30T23:21:54.065Z,99786.20
2024-03-30T23:24:20.682Z,99788.66
2024-03-30T23:26:47.327Z,99787.26
2024-03-30T23:29:15.502Z,99790.66
2024-03-30T23:31:42.458Z,99805.48
2024-03-30T23:34:09.984Z,99825.84
2024-03-30T23:36:36.679Z,99835.97
2024-03-30T23:39:03.826Z,99850.17
2024-03-30T23:41:30.461Z,99867.70
2024-03-30T23:43:57.089Z,99869.92
2024-03-30T23:46:23.800Z,99883.02
2024-03-30T23:48:50.419Z,99892.85
2024-03-30T23:51:17.037Z,99896.27
2024-03-30T23:53:43.599Z,99890.24
2024-03-30T23:56:10.185Z,99876.73
2024-03-30T23:58:36.807Z,99875.80
